sensor_id;sensor_type;location;lat;lon;timestamp;temperature;humidity
45765;DHT22;31474;45.332;10.230;2023-04-24T00:02:21;18.50;93.20
45765;DHT22;31474;45.332;10.230;2023-04-24T00:04:47;18.30;93.30
45765;DHT22;31474;45.332;10.230;2023-04-24T00:07:14;18.30;93.40
45765;DHT22;31474;45.332;10.230;2023-04-24T00:09:42;18.20;93.40
45765;DHT22;31474;45.332;10.230;2023-04-24T00:12:09;18.20;93.60
45765;DHT22;31474;45.332;10.230;2023-04-24T00:14:35;18.10;93.60
45765;DHT22;31474;45.332;10.230;2023-04-24T00:17:01;18.20;93.70
45765;DHT22;31474;45.332;10.230;2023-04-24T00:19:28;18.20;93.70
45765;DHT22;31474;45.332;10.230;2023-04-24T00:21:54;18.20;93.80
45765;DHT22;31474;45.332;10.230;2023-04-24T00:24:20;18.20;93.70
45765;DHT22;31474;45.332;10.230;2023-04-24T00:26:45;18.30;93.80
45765;DHT22;31474;45.332;10.230;2023-04-24T00:29:11;18.30;93.80
45765;DHT22;31474;45.332;10.230;2023-04-24T00:31:37;18.30;93.70
45765;DHT22;31474;45.332;10.230;2023-04-24T00:34:03;18.30;93.80
45765;DHT22;31474;45.332;10.230;2023-04-24T00:36:30;18.30;93.90
45765;DHT22;31474;45.332;10.230;2023-04-24T00:38:57;18.30;93.80
45765;DHT22;31474;45.332;10.230;2023-04-24T00:41:24;18.10;93.90
45765;DHT22;31474;45.332;10.230;2023-04-24T00:43:51;18.20;94.10
45765;DHT22;31474;45.332;10.230;2023-04-24T00:46:17;18.20;93.80
45765;DHT22;31474;45.332;10.230;2023-04-24T00:48:43;18.20;93.50
45765;DHT22;31474;45.332;10.230;2023-04-24T00:51:09;18.20;93.60
45765;DHT22;31474;45.332;10.230;2023-04-24T00:53:35;18.20;93.30
45765;DHT22;31474;45.332;10.230;2023-04-24T00:56:01;18.30;93.40
45765;DHT22;31474;45.332;10.230;2023-04-24T00:58:28;18.30;93.60
45765;DHT22;31474;45.332;10.230;2023-04-24T01:00:54;18.30;93.30
45765;DHT22;31474;45.332;10.230;2023-04-24T01:03:25;18.30;93.60
45765;DHT22;31474;45.332;10.230;2023-04-24T01:05:52;18.30;93.80
45765;DHT22;31474;45.332;10.230;2023-04-24T01:08:19;18.30;94.10
45765;DHT22;31474;45.332;10.230;2023-04-24T01:10:47;18.30;94.20
45765;DHT22;31474;45.332;10.230;2023-04-24T01:13:13;18.20;94.40
45765;DHT22;31474;45.332;10.230;2023-04-24T01:15:39;18.20;94.70
45765;DHT22;31474;45.332;10.230;2023-04-24T01:18:04;18.10;95.10
45765;DHT22;31474;45.332;10.230;2023-04-24T01:20:30;18.10;95.40
45765;DHT22;31474;45.332;10.230;2023-04-24T01:22:57;18.10;95.90
45765;DHT22;31474;45.332;10.230;2023-04-24T01:25:24;18.00;96.00
45765;DHT22;31474;45.332;10.230;2023-04-24T01:27:50;18.00;96.10
45765;DHT22;31474;45.332;10.230;2023-04-24T01:30:16;17.90;96.20
45765;DHT22;31474;45.332;10.230;2023-04-24T01:32:43;17.90;96.20
45765;DHT22;31474;45.332;10.230;2023-04-24T01:35:10;17.90;96.50
45765;DHT22;31474;45.332;10.230;2023-04-24T01:37:35;17.80;96.90
45765;DHT22;31474;45.332;10.230;2023-04-24T01:40:06;17.80;97.60
45765;DHT22;31474;45.332;10.230;2023-04-24T01:42:32;17.70;97.90
45765;DHT22;31474;45.332;10.230;2023-04-24T01:44:59;17.70;98.30
45765;DHT22;31474;45.332;10.230;2023-04-24T01:47:25;17.70;98.70
45765;DHT22;31474;45.332;10.230;2023-04-24T01:49:51;17.60;99.20
45765;DHT22;31474;45.332;10.230;2023-04-24T01:52:17;17.60;99.10
45765;DHT22;31474;45.332;10.230;2023-04-24T01:54:44;17.50;99.30
45765;DHT22;31474;45.332;10.230;2023-04-24T01:57:10;17.40;99.30
45765;DHT22;31474;45.332;10.230;2023-04-24T01:59:36;17.40;99.80
45765;DHT22;31474;45.332;10.230;2023-04-24T02:02:02;17.30;99.70
45765;DHT22;31474;45.332;10.230;2023-04-24T02:04:28;17.30;99.70
45765;DHT22;31474;45.332;10.230;2023-04-24T02:06:54;17.40;99.90
45765;DHT22;31474;45.332;10.230;2023-04-24T02:09:20;17.40;99.90
45765;DHT22;31474;45.332;10.230;2023-04-24T02:11:45;17.30;99.90
45765;DHT22;31474;45.332;10.230;2023-04-24T02:14:11;17.20;99.90
45765;DHT22;31474;45.332;10.230;2023-04-24T02:16:37;17.20;99.90
45765;DHT22;31474;45.332;10.230;2023-04-24T02:19:02;17.10;99.90
45765;DHT22;31474;45.332;10.230;2023-04-24T02:21:28;17.00;99.90
45765;DHT22;31474;45.332;10.230;2023-04-24T02:23:54;17.10;99.90
45765;DHT22;31474;45.332;10.230;2023-04-24T02:26:19;17.10;99.90
45765;DHT22;31474;45.332;10.230;2023-04-24T02:28:45;17.10;99.90
45765;DHT22;31474;45.332;10.230;2023-04-24T02:31:11;17.10;99.90
45765;DHT22;31474;45.332;10.230;2023-04-24T02:33:36;17.10;99.90
45765;DHT22;31474;45.332;10.230;2023-04-24T02:36:02;17.10;99.90
45765;DHT22;31474;45.332;10.230;2023-04-24T02:38:28;17.00;99.90
45765;DHT22;31474;45.332;10.230;2023-04-24T02:40:54;17.00;99.90
45765;DHT22;31474;45.332;10.230;2023-04-24T02:43:20;16.80;99.90
45765;DHT22;31474;45.332;10.230;2023-04-24T02:45:46;16.60;99.90
45765;DHT22;31474;45.332;10.230;2023-04-24T02:48:11;16.60;99.90
45765;DHT22;31474;45.332;10.230;2023-04-24T02:50:38;16.50;99.90
45765;DHT22;31474;45.332;10.230;2023-04-24T02:53:03;16.50;99.90
45765;DHT22;31474;45.332;10.230;2023-04-24T02:55:29;16.50;99.90
45765;DHT22;31474;45.332;10.230;2023-04-24T02:57:55;16.50;99.90
45765;DHT22;31474;45.332;10.230;2023-04-24T03:00:21;16.40;99.90
45765;DHT22;31474;45.332;10.230;2023-04-24T03:02:47;16.30;99.90
45765;DHT22;31474;45.332;10.230;2023-04-24T03:05:12;16.20;99.90
45765;DHT22;31474;45.332;10.230;2023-04-24T03:07:38;16.10;99.90
45765;DHT22;31474;45.332;10.230;2023-04-24T03:10:04;16.00;99.90
45765;DHT22;31474;45.332;10.230;2023-04-24T03:12:31;16.00;99.90
45765;DHT22;31474;45.332;10.230;2023-04-24T03:14:56;15.80;99.90
45765;DHT22;31474;45.332;10.230;2023-04-24T03:17:22;15.70;99.90
45765;DHT22;31474;45.332;10.230;2023-04-24T03:19:48;15.50;99.90
45765;DHT22;31474;45.332;10.230;2023-04-24T03:22:13;15.50;99.90
45765;DHT22;31474;45.332;10.230;2023-04-24T03:24:39;15.50;99.90
45765;DHT22;31474;45.332;10.230;2023-04-24T03:27:05;15.50;99.90
45765;DHT22;31474;45.332;10.230;2023-04-24T03:29:31;15.40;99.90
45765;DHT22;31474;45.332;10.230;2023-04-24T03:31:56;15.40;99.90
45765;DHT22;31474;45.332;10.230;2023-04-24T03:34:22;15.40;99.90
45765;DHT22;31474;45.332;10.230;2023-04-24T03:36:48;15.40;99.90
45765;DHT22;31474;45.332;10.230;2023-04-24T03:39:13;15.40;99.90
45765;DHT22;31474;45.332;10.230;2023-04-24T03:41:39;15.50;99.90
45765;DHT22;31474;45.332;10.230;2023-04-24T03:44:05;15.50;99.90
45765;DHT22;31474;45.332;10.230;2023-04-24T03:46:31;15.50;99.90
45765;DHT22;31474;45.332;10.230;2023-04-24T03:48:56;15.50;99.90
45765;DHT22;31474;45.332;10.230;2023-04-24T03:51:22;15.50;99.90
45765;DHT22;31474;45.332;10.230;2023-04-24T03:53:48;15.50;99.90
45765;DHT22;31474;45.332;10.230;2023-04-24T03:56:14;15.50;99.90
45765;DHT22;31474;45.332;10.230;2023-04-24T03:58:40;15.60;99.90
45765;DHT22;31474;45.332;10.230;2023-04-24T04:01:05;15.70;99.90
45765;DHT22;31474;45.332;10.230;2023-04-24T04:03:31;15.70;99.90
45765;DHT22;31474;45.332;10.230;2023-04-24T04:05:57;15.60;99.90
45765;DHT22;31474;45.332;10.230;2023-04-24T04:08:23;15.60;99.90
45765;DHT22;31474;45.332;10.230;2023-04-24T04:10:48;15.60;99.90
45765;DHT22;31474;45.332;10.230;2023-04-24T04:13:14;15.60;99.90
45765;DHT22;31474;45.332;10.230;2023-04-24T04:15:40;15.60;99.90
45765;DHT22;31474;45.332;10.230;2023-04-24T04:18:06;15.60;99.90
45765;DHT22;31474;45.332;10.230;2023-04-24T04:20:31;15.80;99.90
45765;DHT22;31474;45.332;10.230;2023-04-24T04:22:57;16.00;99.90
45765;DHT22;31474;45.332;10.230;2023-04-24T04:25:23;16.00;99.90
45765;DHT22;31474;45.332;10.230;2023-04-24T04:27:48;15.80;99.90
45765;DHT22;31474;45.332;10.230;2023-04-24T04:30:14;15.70;99.90
45765;DHT22;31474;45.332;10.230;2023-04-24T04:32:40;15.70;99.90
45765;DHT22;31474;45.332;10.230;2023-04-24T04:35:06;15.70;99.90
45765;DHT22;31474;45.332;10.230;2023-04-24T04:37:35;15.80;99.90
45765;DHT22;31474;45.332;10.230;2023-04-24T04:40:01;15.80;99.90
45765;DHT22;31474;45.332;10.230;2023-04-24T04:42:31;15.70;99.90
45765;DHT22;31474;45.332;10.230;2023-04-24T04:44:58;15.60;99.90
45765;DHT22;31474;45.332;10.230;2023-04-24T04:47:23;15.70;99.90
45765;DHT22;31474;45.332;10.230;2023-04-24T04:49:50;15.60;99.90
45765;DHT22;31474;45.332;10.230;2023-04-24T04:52:17;15.50;99.90
45765;DHT22;31474;45.332;10.230;2023-04-24T04:54:43;15.50;99.90
45765;DHT22;31474;45.332;10.230;2023-04-24T04:57:09;15.50;99.90
45765;DHT22;31474;45.332;10.230;2023-04-24T04:59:34;15.60;99.90
45765;DHT22;31474;45.332;10.230;2023-04-24T05:02:00;15.70;99.90
45765;DHT22;31474;45.332;10.230;2023-04-24T05:04:26;15.70;99.90
45765;DHT22;31474;45.332;10.230;2023-04-24T05:06:52;15.80;99.90
45765;DHT22;31474;45.332;10.230;2023-04-24T05:09:18;15.80;99.90
45765;DHT22;31474;45.332;10.230;2023-04-24T05:11:43;15.80;99.90
45765;DHT22;31474;45.332;10.230;2023-04-24T05:14:09;15.80;99.90
45765;DHT22;31474;45.332;10.230;2023-04-24T05:16:35;15.70;99.90
45765;DHT22;31474;45.332;10.230;2023-04-24T05:19:02;15.70;99.90
45765;DHT22;31474;45.332;10.230;2023-04-24T05:21:28;15.80;99.90
45765;DHT22;31474;45.332;10.230;2023-04-24T05:23:54;15.80;99.90
45765;DHT22;31474;45.332;10.230;2023-04-24T05:26:20;15.70;99.90
45765;DHT22;31474;45.332;10.230;2023-04-24T05:28:45;15.70;99.90
45765;DHT22;31474;45.332;10.230;2023-04-24T05:31:11;15.70;99.90
45765;DHT22;31474;45.332;10.230;2023-04-24T05:33:37;15.70;99.90
45765;DHT22;31474;45.332;10.230;2023-04-24T05:36:03;15.80;99.90
45765;DHT22;31474;45.332;10.230;2023-04-24T05:38:31;15.90;99.90
45765;DHT22;31474;45.332;10.230;2023-04-24T05:40:56;15.90;99.90
45765;DHT22;31474;45.332;10.230;2023-04-24T05:43:22;15.90;99.90
45765;DHT22;31474;45.332;10.230;2023-04-24T05:45:47;15.80;99.90
45765;DHT22;31474;45.332;10.230;2023-04-24T05:48:13;15.70;99.90
45765;DHT22;31474;45.332;10.230;2023-04-24T05:50:39;15.80;99.90
45765;DHT22;31474;45.332;10.230;2023-04-24T05:53:05;15.90;99.90
45765;DHT22;31474;45.332;10.230;2023-04-24T05:55:32;16.00;99.90
45765;DHT22;31474;45.332;10.230;2023-04-24T05:57:58;16.10;99.90
45765;DHT22;31474;45.332;10.230;2023-04-24T06:00:24;16.10;99.90
45765;DHT22;31474;45.332;10.230;2023-04-24T06:02:50;16.00;99.90
45765;DHT22;31474;45.332;10.230;2023-04-24T06:05:16;16.10;99.90
45765;DHT22;31474;45.332;10.230;2023-04-24T06:07:43;16.10;99.90
45765;DHT22;31474;45.332;10.230;2023-04-24T06:10:09;16.20;99.90
45765;DHT22;31474;45.332;10.230;2023-04-24T06:12:34;16.30;99.90
45765;DHT22;31474;45.332;10.230;2023-04-24T06:15:00;16.30;99.90
45765;DHT22;31474;45.332;10.230;2023-04-24T06:17:26;16.30;99.90
45765;DHT22;31474;45.332;10.230;2023-04-24T06:19:52;16.30;99.90
45765;DHT22;31474;45.332;10.230;2023-04-24T06:22:17;16.30;99.90
45765;DHT22;31474;45.332;10.230;2023-04-24T06:24:43;16.30;99.90
45765;DHT22;31474;45.332;10.230;2023-04-24T06:27:09;16.40;99.90
45765;DHT22;31474;45.332;10.230;2023-04-24T06:29:35;16.30;99.90
45765;DHT22;31474;45.332;10.230;2023-04-24T06:32:01;16.40;99.90
45765;DHT22;31474;45.332;10.230;2023-04-24T06:34:27;16.50;99.90
45765;DHT22;31474;45.332;10.230;2023-04-24T06:36:53;16.50;99.90
45765;DHT22;31474;45.332;10.230;2023-04-24T06:39:19;16.50;99.90
45765;DHT22;31474;45.332;10.230;2023-04-24T06:41:45;16.60;99.90
45765;DHT22;31474;45.332;10.230;2023-04-24T06:44:10;16.90;99.90
45765;DHT22;31474;45.332;10.230;2023-04-24T06:46:36;17.00;99.90
45765;DHT22;31474;45.332;10.230;2023-04-24T06:49:01;17.00;99.90
45765;DHT22;31474;45.332;10.230;2023-04-24T06:51:27;17.00;99.90
45765;DHT22;31474;45.332;10.230;2023-04-24T06:53:53;17.00;99.90
45765;DHT22;31474;45.332;10.230;2023-04-24T06:56:19;17.00;99.90
45765;DHT22;31474;45.332;10.230;2023-04-24T06:58:46;17.10;99.90
45765;DHT22;31474;45.332;10.230;2023-04-24T07:01:12;17.30;99.90
45765;DHT22;31474;45.332;10.230;2023-04-24T07:03:37;17.60;99.90
45765;DHT22;31474;45.332;10.230;2023-04-24T07:06:04;17.70;99.90
45765;DHT22;31474;45.332;10.230;2023-04-24T07:08:30;17.90;99.90
45765;DHT22;31474;45.332;10.230;2023-04-24T07:10:58;18.20;99.90
45765;DHT22;31474;45.332;10.230;2023-04-24T07:13:25;18.30;99.90
45765;DHT22;31474;45.332;10.230;2023-04-24T07:15:51;18.30;99.90
45765;DHT22;31474;45.332;10.230;2023-04-24T07:18:20;18.40;99.90
45765;DHT22;31474;45.332;10.230;2023-04-24T07:20:46;18.50;99.90
45765;DHT22;31474;45.332;10.230;2023-04-24T07:23:12;18.60;99.90
45765;DHT22;31474;45.332;10.230;2023-04-24T07:25:38;18.70;99.90
45765;DHT22;31474;45.332;10.230;2023-04-24T07:28:04;18.80;99.90
45765;DHT22;31474;45.332;10.230;2023-04-24T07:30:31;18.70;99.90
45765;DHT22;31474;45.332;10.230;2023-04-24T07:32:58;18.50;99.90
45765;DHT22;31474;45.332;10.230;2023-04-24T07:35:24;18.40;99.90
45765;DHT22;31474;45.332;10.230;2023-04-24T07:37:52;18.40;99.90
45765;DHT22;31474;45.332;10.230;2023-04-24T07:40:18;18.40;99.90
45765;DHT22;31474;45.332;10.230;2023-04-24T07:42:44;18.20;99.90
45765;DHT22;31474;45.332;10.230;2023-04-24T07:45:09;18.20;99.90
45765;DHT22;31474;45.332;10.230;2023-04-24T07:47:35;18.20;99.90
45765;DHT22;31474;45.332;10.230;2023-04-24T07:50:02;18.30;99.90
45765;DHT22;31474;45.332;10.230;2023-04-24T07:52:28;18.70;99.90
45765;DHT22;31474;45.332;10.230;2023-04-24T07:54:55;19.10;99.90
45765;DHT22;31474;45.332;10.230;2023-04-24T07:57:24;19.40;99.90
45765;DHT22;31474;45.332;10.230;2023-04-24T07:59:50;19.70;99.90
45765;DHT22;31474;45.332;10.230;2023-04-24T08:02:16;20.10;99.90
45765;DHT22;31474;45.332;10.230;2023-04-24T08:04:41;20.30;99.90
45765;DHT22;31474;45.332;10.230;2023-04-24T08:07:07;20.30;99.90
45765;DHT22;31474;45.332;10.230;2023-04-24T08:09:33;20.30;99.90
45765;DHT22;31474;45.332;10.230;2023-04-24T08:11:59;20.10;99.90
45765;DHT22;31474;45.332;10.230;2023-04-24T08:14:25;20.30;99.90
45765;DHT22;31474;45.332;10.230;2023-04-24T08:16:52;20.40;99.90
45765;DHT22;31474;45.332;10.230;2023-04-24T08:19:17;20.20;99.90
45765;DHT22;31474;45.332;10.230;2023-04-24T08:21:43;20.00;99.90
45765;DHT22;31474;45.332;10.230;2023-04-24T08:24:09;19.90;99.90
45765;DHT22;31474;45.332;10.230;2023-04-24T08:26:34;19.90;99.90
45765;DHT22;31474;45.332;10.230;2023-04-24T08:29:00;20.10;99.90
45765;DHT22;31474;45.332;10.230;2023-04-24T08:31:26;20.30;99.90
45765;DHT22;31474;45.332;10.230;2023-04-24T08:33:52;20.50;99.90
45765;DHT22;31474;45.332;10.230;2023-04-24T08:36:18;20.80;99.90
45765;DHT22;31474;45.332;10.230;2023-04-24T08:38:43;21.00;99.90
45765;DHT22;31474;45.332;10.230;2023-04-24T08:41:11;21.00;99.90
45765;DHT22;31474;45.332;10.230;2023-04-24T08:43:40;21.10;99.90
45765;DHT22;31474;45.332;10.230;2023-04-24T08:46:06;21.30;99.90
45765;DHT22;31474;45.332;10.230;2023-04-24T08:48:32;21.40;99.90
45765;DHT22;31474;45.332;10.230;2023-04-24T08:50:58;21.20;99.90
45765;DHT22;31474;45.332;10.230;2023-04-24T08:53:25;21.00;99.90
45765;DHT22;31474;45.332;10.230;2023-04-24T08:55:51;20.70;99.90
45765;DHT22;31474;45.332;10.230;2023-04-24T08:58:19;20.60;99.90
45765;DHT22;31474;45.332;10.230;2023-04-24T09:00:45;20.40;99.90
45765;DHT22;31474;45.332;10.230;2023-04-24T09:03:16;20.40;99.90
45765;DHT22;31474;45.332;10.230;2023-04-24T09:05:47;20.80;99.90
45765;DHT22;31474;45.332;10.230;2023-04-24T09:08:14;21.10;99.90
45765;DHT22;31474;45.332;10.230;2023-04-24T09:10:40;21.40;99.90
45765;DHT22;31474;45.332;10.230;2023-04-24T09:13:06;21.40;99.90
45765;DHT22;31474;45.332;10.230;2023-04-24T09:15:34;21.20;99.90
45765;DHT22;31474;45.332;10.230;2023-04-24T09:18:00;20.90;99.90
45765;DHT22;31474;45.332;10.230;2023-04-24T09:20:26;21.20;99.90
45765;DHT22;31474;45.332;10.230;2023-04-24T09:22:57;21.40;99.90
45765;DHT22;31474;45.332;10.230;2023-04-24T09:25:32;21.60;99.90
45765;DHT22;31474;45.332;10.230;2023-04-24T09:28:01;21.80;99.90
45765;DHT22;31474;45.332;10.230;2023-04-24T09:30:28;21.90;99.90
45765;DHT22;31474;45.332;10.230;2023-04-24T09:33:13;22.10;99.90
45765;DHT22;31474;45.332;10.230;2023-04-24T09:35:49;22.10;99.90
45765;DHT22;31474;45.332;10.230;2023-04-24T09:38:15;22.20;99.90
45765;DHT22;31474;45.332;10.230;2023-04-24T09:40:41;22.40;99.90
45765;DHT22;31474;45.332;10.230;2023-04-24T09:43:10;22.60;99.90
45765;DHT22;31474;45.332;10.230;2023-04-24T09:45:38;22.70;99.90
45765;DHT22;31474;45.332;10.230;2023-04-24T09:48:04;22.70;99.90
45765;DHT22;31474;45.332;10.230;2023-04-24T09:50:32;22.80;99.90
45765;DHT22;31474;45.332;10.230;2023-04-24T09:53:06;22.60;99.90
45765;DHT22;31474;45.332;10.230;2023-04-24T09:55:45;22.80;99.70
45765;DHT22;31474;45.332;10.230;2023-04-24T09:58:15;22.40;98.60
45765;DHT22;31474;45.332;10.230;2023-04-24T10:00:41;22.00;99.90
45765;DHT22;31474;45.332;10.230;2023-04-24T10:03:07;21.80;99.90
45765;DHT22;31474;45.332;10.230;2023-04-24T10:05:37;21.60;99.90
45765;DHT22;31474;45.332;10.230;2023-04-24T10:08:08;21.80;99.90
45765;DHT22;31474;45.332;10.230;2023-04-24T10:10:41;22.00;99.90
45765;DHT22;31474;45.332;10.230;2023-04-24T10:13:07;22.00;99.90
45765;DHT22;31474;45.332;10.230;2023-04-24T10:15:34;22.00;99.90
45765;DHT22;31474;45.332;10.230;2023-04-24T10:18:00;22.00;99.90
45765;DHT22;31474;45.332;10.230;2023-04-24T10:20:28;22.20;99.90
45765;DHT22;31474;45.332;10.230;2023-04-24T10:22:58;22.40;99.90
45765;DHT22;31474;45.332;10.230;2023-04-24T10:25:26;22.50;99.30
45765;DHT22;31474;45.332;10.230;2023-04-24T10:27:52;22.20;99.20
45765;DHT22;31474;45.332;10.230;2023-04-24T10:30:19;22.10;99.30
45765;DHT22;31474;45.332;10.230;2023-04-24T10:32:45;22.30;99.90
45765;DHT22;31474;45.332;10.230;2023-04-24T10:35:15;22.30;99.90
45765;DHT22;31474;45.332;10.230;2023-04-24T10:37:48;22.10;99.60
45765;DHT22;31474;45.332;10.230;2023-04-24T10:40:25;21.90;99.80
45765;DHT22;31474;45.332;10.230;2023-04-24T10:42:52;21.90;99.00
45765;DHT22;31474;45.332;10.230;2023-04-24T10:45:22;22.10;99.90
45765;DHT22;31474;45.332;10.230;2023-04-24T10:47:58;22.10;99.60
45765;DHT22;31474;45.332;10.230;2023-04-24T10:50:26;22.40;99.60
45765;DHT22;31474;45.332;10.230;2023-04-24T10:52:52;22.60;99.90
45765;DHT22;31474;45.332;10.230;2023-04-24T10:55:56;22.90;99.30
45765;DHT22;31474;45.332;10.230;2023-04-24T10:58:23;23.00;99.70
45765;DHT22;31474;45.332;10.230;2023-04-24T11:01:00;22.80;99.40
45765;DHT22;31474;45.332;10.230;2023-04-24T11:03:28;22.60;99.80
45765;DHT22;31474;45.332;10.230;2023-04-24T11:06:06;22.60;99.70
45765;DHT22;31474;45.332;10.230;2023-04-24T11:08:43;22.50;98.50
45765;DHT22;31474;45.332;10.230;2023-04-24T11:11:10;22.60;99.10
45765;DHT22;31474;45.332;10.230;2023-04-24T11:16:20;22.80;98.80
45765;DHT22;31474;45.332;10.230;2023-04-24T11:18:51;22.90;99.30
45765;DHT22;31474;45.332;10.230;2023-04-24T11:21:20;22.70;98.20
45765;DHT22;31474;45.332;10.230;2023-04-24T11:23:46;22.80;98.50
45765;DHT22;31474;45.332;10.230;2023-04-24T11:26:21;22.80;99.10
45765;DHT22;31474;45.332;10.230;2023-04-24T11:28:47;22.60;97.80
45765;DHT22;31474;45.332;10.230;2023-04-24T11:31:41;22.60;98.30
45765;DHT22;31474;45.332;10.230;2023-04-24T11:34:14;22.70;97.50
45765;DHT22;31474;45.332;10.230;2023-04-24T11:36:43;22.90;99.40
45765;DHT22;31474;45.332;10.230;2023-04-24T11:39:09;22.90;98.50
45765;DHT22;31474;45.332;10.230;2023-04-24T11:41:35;23.00;98.40
45765;DHT22;31474;45.332;10.230;2023-04-24T11:44:02;22.90;99.00
45765;DHT22;31474;45.332;10.230;2023-04-24T11:46:29;22.90;97.80
45765;DHT22;31474;45.332;10.230;2023-04-24T11:48:56;22.90;98.80
45765;DHT22;31474;45.332;10.230;2023-04-24T11:51:26;22.90;98.20
45765;DHT22;31474;45.332;10.230;2023-04-24T11:53:55;22.90;97.70
45765;DHT22;31474;45.332;10.230;2023-04-24T11:56:22;22.90;98.60
45765;DHT22;31474;45.332;10.230;2023-04-24T11:58:48;22.90;98.10
45765;DHT22;31474;45.332;10.230;2023-04-24T12:01:14;22.90;97.50
45765;DHT22;31474;45.332;10.230;2023-04-24T12:03:40;23.00;97.30
45765;DHT22;31474;45.332;10.230;2023-04-24T12:06:10;23.00;96.70
45765;DHT22;31474;45.332;10.230;2023-04-24T12:08:37;23.10;97.50
45765;DHT22;31474;45.332;10.230;2023-04-24T12:11:04;23.20;97.40
45765;DHT22;31474;45.332;10.230;2023-04-24T12:13:33;23.10;97.30
45765;DHT22;31474;45.332;10.230;2023-04-24T12:15:59;23.10;97.30
45765;DHT22;31474;45.332;10.230;2023-04-24T12:18:26;23.00;97.10
45765;DHT22;31474;45.332;10.230;2023-04-24T12:20:51;23.10;98.00
45765;DHT22;31474;45.332;10.230;2023-04-24T12:23:33;23.10;97.00
45765;DHT22;31474;45.332;10.230;2023-04-24T12:26:03;23.20;96.40
45765;DHT22;31474;45.332;10.230;2023-04-24T12:28:35;23.10;96.40
45765;DHT22;31474;45.332;10.230;2023-04-24T12:31:01;23.10;97.20
45765;DHT22;31474;45.332;10.230;2023-04-24T12:33:27;23.00;96.70
45765;DHT22;31474;45.332;10.230;2023-04-24T12:35:54;23.10;97.10
45765;DHT22;31474;45.332;10.230;2023-04-24T12:38:25;23.00;96.20
45765;DHT22;31474;45.332;10.230;2023-04-24T12:41:14;23.00;97.00
45765;DHT22;31474;45.332;10.230;2023-04-24T12:43:54;23.10;95.80
45765;DHT22;31474;45.332;10.230;2023-04-24T12:46:20;23.00;96.10
45765;DHT22;31474;45.332;10.230;2023-04-24T12:48:46;23.20;97.80
45765;DHT22;31474;45.332;10.230;2023-04-24T12:51:11;23.20;96.40
45765;DHT22;31474;45.332;10.230;2023-04-24T12:53:37;23.10;97.50
45765;DHT22;31474;45.332;10.230;2023-04-24T12:56:03;23.10;96.40
45765;DHT22;31474;45.332;10.230;2023-04-24T12:58:28;23.00;95.90
45765;DHT22;31474;45.332;10.230;2023-04-24T13:00:54;23.00;96.40
45765;DHT22;31474;45.332;10.230;2023-04-24T13:03:20;22.90;96.20
45765;DHT22;31474;45.332;10.230;2023-04-24T13:05:45;23.00;96.60
45765;DHT22;31474;45.332;10.230;2023-04-24T13:08:11;23.10;96.40
45765;DHT22;31474;45.332;10.230;2023-04-24T13:10:38;23.20;97.00
45765;DHT22;31474;45.332;10.230;2023-04-24T13:13:04;23.20;96.00
45765;DHT22;31474;45.332;10.230;2023-04-24T13:15:30;23.10;96.10
45765;DHT22;31474;45.332;10.230;2023-04-24T13:17:55;23.20;96.60
45765;DHT22;31474;45.332;10.230;2023-04-24T13:20:21;23.20;96.20
45765;DHT22;31474;45.332;10.230;2023-04-24T13:22:47;23.30;97.40
45765;DHT22;31474;45.332;10.230;2023-04-24T13:25:12;23.30;95.60
45765;DHT22;31474;45.332;10.230;2023-04-24T13:27:38;23.40;95.80
45765;DHT22;31474;45.332;10.230;2023-04-24T13:30:05;23.40;96.10
45765;DHT22;31474;45.332;10.230;2023-04-24T13:32:32;23.40;96.40
45765;DHT22;31474;45.332;10.230;2023-04-24T13:34:58;23.50;95.80
45765;DHT22;31474;45.332;10.230;2023-04-24T13:37:24;23.50;95.70
45765;DHT22;31474;45.332;10.230;2023-04-24T13:39:50;23.50;95.30
45765;DHT22;31474;45.332;10.230;2023-04-24T13:42:16;23.40;95.70
45765;DHT22;31474;45.332;10.230;2023-04-24T13:44:41;23.50;96.80
45765;DHT22;31474;45.332;10.230;2023-04-24T13:47:07;23.50;95.60
45765;DHT22;31474;45.332;10.230;2023-04-24T13:49:32;23.50;94.90
45765;DHT22;31474;45.332;10.230;2023-04-24T13:51:58;23.50;94.70
45765;DHT22;31474;45.332;10.230;2023-04-24T13:54:24;23.50;94.70
45765;DHT22;31474;45.332;10.230;2023-04-24T13:56:51;23.60;95.60
45765;DHT22;31474;45.332;10.230;2023-04-24T13:59:17;23.60;94.00
45765;DHT22;31474;45.332;10.230;2023-04-24T14:01:44;23.60;94.60
45765;DHT22;31474;45.332;10.230;2023-04-24T14:04:10;23.70;94.30
45765;DHT22;31474;45.332;10.230;2023-04-24T14:06:36;23.70;94.60
45765;DHT22;31474;45.332;10.230;2023-04-24T14:09:02;23.70;94.80
45765;DHT22;31474;45.332;10.230;2023-04-24T14:11:28;23.70;95.00
45765;DHT22;31474;45.332;10.230;2023-04-24T14:13:55;23.80;93.90
45765;DHT22;31474;45.332;10.230;2023-04-24T14:16:22;23.80;93.00
45765;DHT22;31474;45.332;10.230;2023-04-24T14:18:47;23.80;92.90
45765;DHT22;31474;45.332;10.230;2023-04-24T14:21:13;23.80;93.20
45765;DHT22;31474;45.332;10.230;2023-04-24T14:23:39;23.90;93.80
45765;DHT22;31474;45.332;10.230;2023-04-24T14:26:04;24.00;94.00
45765;DHT22;31474;45.332;10.230;2023-04-24T14:28:30;24.00;93.30
45765;DHT22;31474;45.332;10.230;2023-04-24T14:30:55;24.10;92.30
45765;DHT22;31474;45.332;10.230;2023-04-24T14:33:21;24.10;91.50
45765;DHT22;31474;45.332;10.230;2023-04-24T14:35:47;24.10;92.50
45765;DHT22;31474;45.332;10.230;2023-04-24T14:38:13;24.20;92.10
45765;DHT22;31474;45.332;10.230;2023-04-24T14:40:39;24.20;92.10
45765;DHT22;31474;45.332;10.230;2023-04-24T14:43:05;24.30;92.40
45765;DHT22;31474;45.332;10.230;2023-04-24T14:45:32;24.40;93.00
45765;DHT22;31474;45.332;10.230;2023-04-24T14:47:58;24.50;92.40
45765;DHT22;31474;45.332;10.230;2023-04-24T14:50:23;24.60;92.20
45765;DHT22;31474;45.332;10.230;2023-04-24T14:52:53;24.60;91.90
45765;DHT22;31474;45.332;10.230;2023-04-24T14:55:19;24.60;91.50
45765;DHT22;31474;45.332;10.230;2023-04-24T14:57:45;24.60;91.80
45765;DHT22;31474;45.332;10.230;2023-04-24T15:00:12;24.60;90.80
45765;DHT22;31474;45.332;10.230;2023-04-24T15:02:38;24.40;91.30
45765;DHT22;31474;45.332;10.230;2023-04-24T15:05:07;24.20;90.60
45765;DHT22;31474;45.332;10.230;2023-04-24T15:07:33;24.10;91.60
45765;DHT22;31474;45.332;10.230;2023-04-24T15:10:01;24.10;90.90
45765;DHT22;31474;45.332;10.230;2023-04-24T15:12:26;24.10;90.90
45765;DHT22;31474;45.332;10.230;2023-04-24T15:14:54;24.10;90.80
45765;DHT22;31474;45.332;10.230;2023-04-24T15:17:19;24.00;89.10